Terminal Aerodrome Forecast
Issued by NWS

Home | Current Version | Previous Version | Text Only | Print | Product List | Glossary On
Versions: 1 2 3 4 5 6 7 8 9 10 11 12 13 14 15 16 17 18 19 20 21 22 23 24 25 26 27 28 29 30 31 32
100
FTUS43 KFGF 240611 AAA
TAFTVF
TAF AMD
KTVF 240611Z 2406/2506 19018G25KT P6SM OVC090
     FM240900 19010KT P6SM BKN080 WS020/23040KT
     FM242000 29014G22KT P6SM FEW120=

USA.gov is the U.S. government's official web portal to all federal, state and local government web resources and services.